Time;durP1;ratioP1;P1;durP2;ratioP2;P2;SDS_P1;SDS_P2;PMS_P1;PMS_P2;Temp;Humidity;BMP_temperature;BMP_pressure;BME280_temperature;BME280_humidity;BME280_pressure;Samples;Min_cycle;Max_cycle;Signal;HPM_P1;HPM_P2
2023/08/08 00:00:01;;;;;;;2.08;0.75;;;14.20;95.60;;;;;;4877138;29;20048;-78
2023/08/08 00:03:09;;;;;;;1.75;0.70;;;14.20;95.60;;;;;;4876648;29;20040;-79
2023/08/08 00:05:36;;;;;;;2.30;0.77;;;14.20;95.60;;;;;;4882537;29;20397;-78
2023/08/08 00:08:03;;;;;;;3.72;0.93;;;14.10;95.70;;;;;;4876785;29;20048;-78
2023/08/08 00:10:30;;;;;;;4.68;1.23;;;14.10;95.80;;;;;;4860749;29;20044;-79
2023/08/08 00:12:57;;;;;;;2.17;0.80;;;14.10;95.80;;;;;;4878656;29;20059;-79
2023/08/08 00:15:24;;;;;;;3.17;0.90;;;14.10;95.90;;;;;;4896744;29;20044;-78
2023/08/08 00:17:52;;;;;;;1.98;0.85;;;14.10;95.90;;;;;;4865068;29;20534;-79
2023/08/08 00:20:19;;;;;;;3.05;0.75;;;14.20;95.80;;;;;;4793796;29;20451;-78
2023/08/08 00:22:46;;;;;;;4.15;0.90;;;14.20;95.80;;;;;;4859907;29;20041;-78
2023/08/08 00:25:13;;;;;;;3.53;0.75;;;14.20;95.80;;;;;;4839232;29;20048;-78
2023/08/08 00:27:43;;;;;;;1.88;0.70;;;14.30;95.80;;;;;;4860836;29;20843;-78
2023/08/08 00:30:12;;;;;;;2.60;0.77;;;14.30;95.80;;;;;;4897602;29;20048;-78
2023/08/08 00:32:39;;;;;;;2.65;0.90;;;14.30;95.80;;;;;;4876545;29;20405;-80
2023/08/08 00:35:07;;;;;;;2.88;1.10;;;14.40;95.70;;;;;;4856750;29;20100;-78
2023/08/08 00:38:18;;;;;;;2.45;0.88;;;14.40;95.80;;;;;;4842274;29;20160;-79
2023/08/08 00:40:45;;;;;;;2.83;1.20;;;14.50;95.70;;;;;;4865983;29;20052;-79
2023/08/08 00:43:50;;;;;;;2.33;1.08;;;14.50;95.80;;;;;;4877038;29;20124;-79
2023/08/08 00:46:21;;;;;;;2.28;1.10;;;14.50;95.70;;;;;;4896707;29;20051;-78
2023/08/08 00:48:51;;;;;;;1.63;0.85;;;14.50;95.60;;;;;;4891488;29;20048;-78
2023/08/08 00:51:20;;;;;;;2.78;1.00;;;14.50;95.60;;;;;;4876658;29;20040;-80
2023/08/08 00:53:49;;;;;;;2.05;0.80;;;14.60;95.70;;;;;;4859726;29;20053;-79
2023/08/08 00:56:17;;;;;;;2.97;1.08;;;14.60;95.70;;;;;;4876114;29;20044;-79
2023/08/08 00:58:50;;;;;;;4.38;1.15;;;14.60;95.70;;;;;;4883706;29;20067;-79
2023/08/08 01:01:18;;;;;;;2.38;1.10;;;14.60;95.70;;;;;;4896424;29;20123;-80
2023/08/08 01:04:06;;;;;;;2.55;1.10;;;14.60;95.70;;;;;;4894055;29;20501;-79
2023/08/08 01:06:38;;;;;;;4.05;1.40;;;14.70;95.70;;;;;;4878651;29;20045;-79
2023/08/08 01:09:23;;;;;;;3.60;1.60;;;14.60;95.70;;;;;;4879054;29;20056;-80
2023/08/08 01:11:53;;;;;;;3.75;1.88;;;14.60;95.70;;;;;;4879478;29;20307;-80
2023/08/08 01:14:24;;;;;;;2.90;1.45;;;14.60;95.80;;;;;;4890039;29;20045;-80
2023/08/08 01:16:57;;;;;;;6.32;2.15;;;14.60;95.80;;;;;;4889528;29;20044;-81
2023/08/08 01:19:29;;;;;;;3.15;1.60;;;14.60;95.90;;;;;;4879638;29;20041;-80
2023/08/08 01:22:02;;;;;;;4.70;1.30;;;14.60;95.80;;;;;;4893606;29;20619;-81
2023/08/08 01:24:32;;;;;;;2.45;1.20;;;14.50;95.90;;;;;;4888626;29;20124;-80
2023/08/08 01:27:00;;;;;;;4.70;1.70;;;14.50;96.00;;;;;;4863672;29;20401;-80
2023/08/08 01:29:27;;;;;;;3.45;1.23;;;14.40;96.00;;;;;;4879707;29;20048;-78
2023/08/08 01:31:55;;;;;;;4.28;1.33;;;14.40;96.10;;;;;;4879293;29;20048;-78
2023/08/08 01:34:23;;;;;;;2.85;1.23;;;14.40;96.10;;;;;;4890154;29;20048;-78
2023/08/08 01:37:05;;;;;;;3.42;1.00;;;14.40;96.20;;;;;;4885977;29;20552;-78
2023/08/08 01:39:34;;;;;;;2.72;1.15;;;14.40;96.30;;;;;;4894908;29;20051;-78
2023/08/08 01:42:02;;;;;;;4.30;1.10;;;14.30;96.30;;;;;;4864306;29;20045;-78
2023/08/08 01:44:32;;;;;;;1.85;0.95;;;14.30;96.40;;;;;;4863913;29;20048;-78
2023/08/08 01:46:59;;;;;;;2.35;1.00;;;14.30;96.40;;;;;;4860952;29;20052;-78
2023/08/08 01:49:26;;;;;;;2.67;1.13;;;14.30;96.50;;;;;;4859026;29;20497;-78
2023/08/08 01:51:55;;;;;;;2.67;0.80;;;14.30;96.50;;;;;;4878037;29;20053;-78
2023/08/08 01:54:22;;;;;;;2.97;1.08;;;14.20;96.60;;;;;;4864679;29;20096;-79
2023/08/08 01:56:50;;;;;;;2.65;1.20;;;14.20;96.70;;;;;;4894693;29;20048;-78
2023/08/08 01:59:17;;;;;;;2.45;0.90;;;14.20;96.70;;;;;;4845818;29;20049;-78
2023/08/08 02:01:44;;;;;;;2.47;1.02;;;14.10;96.80;;;;;;4855417;29;20617;-78
2023/08/08 02:04:11;;;;;;;2.55;1.00;;;14.10;96.80;;;;;;4880168;29;20048;-78
2023/08/08 02:06:38;;;;;;;1.45;0.75;;;14.10;96.90;;;;;;4861410;29;20127;-79
2023/08/08 02:09:05;;;;;;;2.00;0.90;;;14.10;96.90;;;;;;4845073;29;20052;-78
2023/08/08 02:11:34;;;;;;;3.85;1.10;;;14.10;96.90;;;;;;4869713;29;20123;-78
2023/08/08 02:14:01;;;;;;;4.95;1.48;;;14.10;97.20;;;;;;4862274;29;20382;-78
2023/08/08 02:16:28;;;;;;;4.55;1.27;;;14.10;97.00;;;;;;4888405;29;20159;-78
2023/08/08 02:18:55;;;;;;;2.40;1.00;;;14.20;97.00;;;;;;4875571;29;20049;-78
2023/08/08 02:21:22;;;;;;;3.35;0.90;;;14.20;97.30;;;;;;4875222;29;20048;-78
2023/08/08 02:23:50;;;;;;;4.75;1.15;;;14.20;97.00;;;;;;4890044;29;20413;-78
2023/08/08 02:26:17;;;;;;;7.13;1.10;;;14.20;97.00;;;;;;4873052;29;20040;-78
2023/08/08 02:28:44;;;;;;;3.15;1.02;;;14.20;97.00;;;;;;4859529;29;20053;-78
2023/08/08 02:31:11;;;;;;;4.88;1.05;;;14.20;97.00;;;;;;4868289;29;20056;-78
2023/08/08 02:33:39;;;;;;;2.25;0.95;;;14.20;97.10;;;;;;4863416;29;20044;-78
2023/08/08 02:36:06;;;;;;;3.50;0.93;;;14.10;97.20;;;;;;4857126;29;20056;-78
2023/08/08 02:38:33;;;;;;;3.65;1.17;;;14.10;97.30;;;;;;4851530;29;20420;-78
2023/08/08 02:41:00;;;;;;;2.47;0.82;;;14.00;97.30;;;;;;4854597;29;20044;-78
2023/08/08 02:43:28;;;;;;;7.07;1.65;;;14.00;97.40;;;;;;4861948;29;20121;-78
2023/08/08 02:45:55;;;;;;;6.82;1.40;;;14.00;97.40;;;;;;4854421;29;20139;-78
2023/08/08 02:48:22;;;;;;;2.45;0.88;;;13.90;97.40;;;;;;4879181;29;20056;-78
2023/08/08 02:50:51;;;;;;;2.25;0.95;;;13.90;97.40;;;;;;4860816;29;20044;-78
2023/08/08 02:53:24;;;;;;;1.83;0.60;;;13.90;97.50;;;;;;4878410;29;20057;-78
2023/08/08 02:55:51;;;;;;;1.60;0.70;;;13.90;97.50;;;;;;4878565;29;20121;-78
2023/08/08 02:58:18;;;;;;;1.45;0.70;;;13.80;97.60;;;;;;4876708;29;20055;-78
2023/08/08 03:00:46;;;;;;;2.13;0.77;;;13.80;97.60;;;;;;4893642;29;20120;-77
2023/08/08 03:03:14;;;;;;;2.10;0.70;;;13.80;97.70;;;;;;4878433;29;20517;-77
2023/08/08 03:05:44;;;;;;;1.52;0.55;;;13.70;97.70;;;;;;4893828;29;20052;-77
2023/08/08 03:08:12;;;;;;;2.28;1.00;;;13.70;97.70;;;;;;4882309;29;20044;-77
2023/08/08 03:10:40;;;;;;;3.03;0.93;;;13.70;97.80;;;;;;4897532;29;20454;-77
2023/08/08 03:13:08;;;;;;;4.53;1.30;;;13.70;97.80;;;;;;4838181;29;20498;-77
2023/08/08 03:15:35;;;;;;;4.07;1.05;;;13.60;97.90;;;;;;4881929;29;20040;-78
2023/08/08 03:18:05;;;;;;;5.35;1.00;;;13.70;97.90;;;;;;4875310;29;20532;-77
2023/08/08 03:20:33;;;;;;;2.85;1.50;;;13.70;97.90;;;;;;4887741;29;20052;-77
2023/08/08 03:23:01;;;;;;;3.05;1.20;;;13.80;98.00;;;;;;4864711;29;20052;-77
2023/08/08 03:25:29;;;;;;;3.03;1.30;;;13.90;97.80;;;;;;4869469;29;20059;-76
2023/08/08 03:27:56;;;;;;;3.60;1.20;;;14.00;97.80;;;;;;4858135;29;20045;-77
2023/08/08 03:30:23;;;;;;;4.25;1.23;;;14.00;97.70;;;;;;4892045;29;20047;-77
2023/08/08 03:33:09;;;;;;;5.88;1.95;;;14.10;97.70;;;;;;4897984;29;20051;-77
2023/08/08 03:35:37;;;;;;;7.68;1.58;;;14.10;97.70;;;;;;4882688;29;20882;-78
2023/08/08 03:38:04;;;;;;;5.60;1.83;;;14.10;97.70;;;;;;4846820;29;20131;-77
2023/08/08 03:40:31;;;;;;;6.07;2.00;;;14.10;97.70;;;;;;4853035;29;20072;-77
2023/08/08 03:42:59;;;;;;;3.88;1.80;;;14.10;97.70;;;;;;4860510;29;20041;-77
2023/08/08 03:45:26;;;;;;;3.75;1.60;;;14.10;98.00;;;;;;4843294;29;20052;-78
2023/08/08 03:47:53;;;;;;;6.25;2.30;;;14.20;97.80;;;;;;4880984;29;20037;-78
2023/08/08 03:50:20;;;;;;;5.43;2.25;;;14.20;97.80;;;;;;4854461;29;20045;-78
2023/08/08 03:52:47;;;;;;;5.75;2.47;;;14.20;97.80;;;;;;4874783;29;20045;-78
2023/08/08 03:55:14;;;;;;;4.78;1.92;;;14.20;97.90;;;;;;4856771;29;20053;-77
2023/08/08 03:57:42;;;;;;;6.30;2.30;;;14.20;97.90;;;;;;4876521;29;20796;-78
2023/08/08 04:00:13;;;;;;;5.13;2.75;;;14.20;97.90;;;;;;4860689;29;20462;-78
2023/08/08 04:02:59;;;;;;;5.07;2.58;;;14.20;98.00;;;;;;4876462;29;20478;-78
2023/08/08 04:05:27;;;;;;;6.13;2.58;;;14.30;97.90;;;;;;4870821;29;20056;-77
2023/08/08 04:07:54;;;;;;;5.72;2.47;;;14.20;97.90;;;;;;4871325;29;20044;-78
2023/08/08 04:10:21;;;;;;;8.75;2.55;;;14.20;98.00;;;;;;4870269;29;20044;-77
2023/08/08 04:12:48;;;;;;;6.97;2.53;;;14.20;98.00;;;;;;4873212;29;20052;-76
2023/08/08 04:15:15;;;;;;;5.68;2.22;;;14.30;98.00;;;;;;4861573;29;20065;-77
2023/08/08 04:17:42;;;;;;;5.75;2.50;;;14.30;98.00;;;;;;4846774;29;20520;-77
2023/08/08 04:20:10;;;;;;;5.40;2.63;;;14.30;98.10;;;;;;4863459;29;20063;-77
2023/08/08 04:22:37;;;;;;;4.15;2.00;;;14.30;98.10;;;;;;4876214;29;20048;-77
2023/08/08 04:25:06;;;;;;;4.30;1.92;;;14.30;98.10;;;;;;4853134;29;20104;-77
2023/08/08 04:27:33;;;;;;;5.53;2.75;;;14.30;98.10;;;;;;4888669;29;20044;-77
2023/08/08 04:30:00;;;;;;;6.78;2.35;;;14.20;98.10;;;;;;4863377;29;20120;-76
2023/08/08 04:32:27;;;;;;;3.67;1.73;;;14.20;98.20;;;;;;4865809;29;20525;-77
2023/08/08 04:34:54;;;;;;;4.88;1.98;;;14.20;98.10;;;;;;4881771;29;20974;-77
2023/08/08 04:37:21;;;;;;;4.40;2.30;;;14.20;98.20;;;;;;4871790;29;20489;-76
2023/08/08 04:39:48;;;;;;;6.18;2.50;;;14.20;98.20;;;;;;4621070;29;20568;-77
2023/08/08 04:42:15;;;;;;;5.13;1.95;;;14.20;98.30;;;;;;4508229;29;20369;-77
2023/08/08 04:44:42;;;;;;;5.00;2.17;;;14.20;98.30;;;;;;4895959;29;20033;-77
2023/08/08 04:47:10;;;;;;;5.03;1.98;;;14.20;98.30;;;;;;4875936;29;20048;-77
2023/08/08 04:49:37;;;;;;;4.38;2.10;;;14.30;98.30;;;;;;4858011;29;20049;-77
2023/08/08 04:52:06;;;;;;;5.40;1.45;;;14.30;98.20;;;;;;4844554;29;20065;-77
2023/08/08 04:54:33;;;;;;;4.40;2.03;;;14.30;98.20;;;;;;4843328;29;20052;-77
2023/08/08 04:57:00;;;;;;;6.28;2.30;;;14.40;98.20;;;;;;4844332;29;20048;-77
2023/08/08 04:59:27;;;;;;;5.47;2.10;;;14.40;98.10;;;;;;4867485;29;20052;-76
2023/08/08 05:01:54;;;;;;;6.13;2.15;;;14.40;98.10;;;;;;4863236;29;20048;-77
2023/08/08 05:04:21;;;;;;;6.18;2.30;;;14.40;98.10;;;;;;4869070;29;20053;-77
2023/08/08 05:06:48;;;;;;;8.55;2.75;;;14.40;98.10;;;;;;4887610;29;20053;-78
2023/08/08 05:09:16;;;;;;;6.32;2.72;;;14.40;98.20;;;;;;4877708;29;20437;-78
2023/08/08 05:11:43;;;;;;;5.90;2.10;;;14.40;98.20;;;;;;4848012;29;20067;-77
2023/08/08 05:14:10;;;;;;;7.38;2.67;;;14.40;98.20;;;;;;4859660;29;20080;-77
2023/08/08 05:16:38;;;;;;;7.28;3.08;;;14.30;98.20;;;;;;4859442;29;20056;-77
2023/08/08 05:19:05;;;;;;;4.82;2.70;;;14.30;98.30;;;;;;4880185;29;20523;-77
2023/08/08 05:21:32;;;;;;;6.97;2.70;;;14.30;98.30;;;;;;4886582;29;20057;-78
2023/08/08 05:23:59;;;;;;;7.57;3.22;;;14.40;98.30;;;;;;4842873;29;20048;-78
2023/08/08 05:26:27;;;;;;;9.93;3.70;;;14.40;98.30;;;;;;4843533;29;20536;-77
2023/08/08 05:28:54;;;;;;;7.40;3.53;;;14.50;98.30;;;;;;4854166;29;20591;-78
2023/08/08 05:31:22;;;;;;;11.63;3.67;;;14.60;98.30;;;;;;4866911;29;20056;-77
2023/08/08 05:33:52;;;;;;;7.55;3.05;;;14.70;98.20;;;;;;4874269;29;20052;-77
2023/08/08 05:36:19;;;;;;;11.35;3.78;;;14.70;98.10;;;;;;4875492;29;20071;-77
2023/08/08 05:39:24;;;;;;;6.80;3.65;;;14.80;98.10;;;;;;4872831;29;20083;-77
2023/08/08 05:41:52;;;;;;;8.57;3.50;;;14.80;98.10;;;;;;4890436;29;20052;-77
2023/08/08 05:44:19;;;;;;;8.35;3.42;;;14.80;98.10;;;;;;4892046;29;20047;-77
2023/08/08 05:46:46;;;;;;;6.93;3.08;;;14.90;98.10;;;;;;4886140;29;20048;-77
2023/08/08 05:49:13;;;;;;;4.97;2.72;;;14.90;98.10;;;;;;4859154;29;20410;-77
2023/08/08 05:51:41;;;;;;;8.50;3.88;;;14.90;98.00;;;;;;4863507;29;20040;-77
2023/08/08 05:54:09;;;;;;;6.03;3.30;;;15.00;98.00;;;;;;4879981;29;20049;-78
2023/08/08 05:56:39;;;;;;;11.95;4.43;;;15.00;98.00;;;;;;4860514;29;20855;-77
2023/08/08 05:59:12;;;;;;;11.02;4.38;;;15.10;98.10;;;;;;4890420;29;20060;-77
2023/08/08 06:01:39;;;;;;;10.43;4.03;;;15.10;98.00;;;;;;4874049;29;20040;-77
2023/08/08 06:04:07;;;;;;;8.40;3.63;;;15.10;97.90;;;;;;4878292;29;20413;-77
2023/08/08 06:06:35;;;;;;;7.88;3.33;;;15.20;97.90;;;;;;4852569;29;20119;-77
2023/08/08 06:09:03;;;;;;;7.07;3.80;;;15.20;97.90;;;;;;4776892;29;20557;-77
2023/08/08 06:11:30;;;;;;;7.70;3.72;;;15.30;97.90;;;;;;4873346;29;20195;-76
2023/08/08 06:13:57;;;;;;;10.77;4.18;;;15.30;97.80;;;;;;4882285;29;21034;-77
2023/08/08 06:16:24;;;;;;;9.57;4.05;;;15.30;97.80;;;;;;4860338;29;20053;-77
2023/08/08 06:18:53;;;;;;;9.50;3.72;;;15.30;97.90;;;;;;4877344;29;20044;-77
2023/08/08 06:21:20;;;;;;;10.32;3.65;;;15.30;97.80;;;;;;4892141;29;20048;-77
2023/08/08 06:23:47;;;;;;;10.85;4.00;;;15.30;97.80;;;;;;4878549;29;20060;-76
2023/08/08 06:26:14;;;;;;;6.75;3.28;;;15.30;97.90;;;;;;4861710;29;20050;-77
2023/08/08 06:28:42;;;;;;;7.75;3.25;;;15.50;97.90;;;;;;4860893;29;20040;-85
2023/08/08 06:31:08;;;;;;;9.48;3.10;;;15.60;97.70;;;;;;4863425;29;20048;-85
2023/08/08 06:33:36;;;;;;;6.22;2.50;;;15.80;97.50;;;;;;4865589;29;20044;-85
2023/08/08 06:36:03;;;;;;;9.27;2.97;;;15.80;97.40;;;;;;4861036;29;20060;-85
2023/08/08 06:39:13;;;;;;;8.73;2.35;;;15.80;97.30;;;;;;4844925;29;20052;-85
2023/08/08 06:41:40;;;;;;;8.30;2.60;;;15.80;97.20;;;;;;4869732;29;20048;-85
2023/08/08 06:44:09;;;;;;;6.85;2.60;;;15.70;97.30;;;;;;4896397;29;20080;-85
2023/08/08 06:46:37;;;;;;;10.45;3.33;;;15.60;97.40;;;;;;4877710;29;20063;-85
2023/08/08 06:49:04;;;;;;;5.25;2.15;;;15.70;97.30;;;;;;4860478;29;20052;-85
2023/08/08 06:51:32;;;;;;;6.25;2.10;;;15.90;97.20;;;;;;4876659;29;20041;-85
2023/08/08 06:53:59;;;;;;;5.03;2.20;;;16.10;97.00;;;;;;4875916;29;20048;-85
2023/08/08 06:56:26;;;;;;;6.75;2.30;;;16.10;96.80;;;;;;4862502;29;20059;-85
2023/08/08 06:59:12;;;;;;;9.63;3.35;;;16.10;96.80;;;;;;4894552;29;20064;-85
2023/08/08 07:01:40;;;;;;;8.52;2.50;;;16.20;96.70;;;;;;4885933;29;20052;-85
2023/08/08 07:04:07;;;;;;;7.57;2.45;;;16.10;96.60;;;;;;4876472;29;20060;-84
2023/08/08 07:06:34;;;;;;;6.20;2.50;;;16.30;96.60;;;;;;4860546;29;20037;-84
2023/08/08 07:09:02;;;;;;;4.38;1.48;;;16.40;96.40;;;;;;4891366;29;20113;-85
2023/08/08 07:11:29;;;;;;;5.45;2.65;;;16.50;96.20;;;;;;4892923;29;20477;-85
2023/08/08 07:13:56;;;;;;;5.15;1.85;;;16.50;96.10;;;;;;4863120;29;20040;-85
2023/08/08 07:16:23;;;;;;;4.80;1.60;;;16.50;96.10;;;;;;4862345;29;20139;-85
2023/08/08 07:18:50;;;;;;;3.25;1.40;;;16.40;96.10;;;;;;4864076;29;20112;-86
2023/08/08 07:21:21;;;;;;;4.38;1.30;;;16.50;96.00;;;;;;4848610;29;20120;-86
2023/08/08 07:23:47;;;;;;;5.13;1.70;;;16.50;95.80;;;;;;4879475;29;20052;-86
2023/08/08 07:26:15;;;;;;;3.30;0.95;;;16.50;95.80;;;;;;4863437;29;20048;-86
2023/08/08 07:28:42;;;;;;;4.38;0.80;;;16.50;95.60;;;;;;4858368;29;20496;-85
2023/08/08 07:31:09;;;;;;;1.60;0.70;;;16.60;95.20;;;;;;4883495;29;20053;-85
2023/08/08 07:33:36;;;;;;;4.20;1.02;;;16.70;94.70;;;;;;4876423;29;20099;-86
2023/08/08 07:36:04;;;;;;;1.67;0.40;;;16.80;94.20;;;;;;4884935;29;20075;-86
2023/08/08 07:38:33;;;;;;;2.15;0.80;;;16.90;93.60;;;;;;4889015;29;20135;-86
2023/08/08 07:41:00;;;;;;;3.22;0.55;;;16.90;93.20;;;;;;4883625;29;20127;-86
2023/08/08 07:43:27;;;;;;;3.50;0.60;;;17.10;93.00;;;;;;4866939;29;20045;-87
2023/08/08 07:45:54;;;;;;;4.40;0.88;;;17.30;92.40;;;;;;4881070;29;20067;-86
2023/08/08 07:48:21;;;;;;;2.53;0.50;;;17.20;92.10;;;;;;4849237;29;20044;-87
2023/08/08 07:50:50;;;;;;;3.40;0.82;;;17.20;91.70;;;;;;4858647;29;20120;-86
2023/08/08 07:53:17;;;;;;;2.97;0.50;;;17.10;91.40;;;;;;4879333;29;20040;-87
2023/08/08 07:55:44;;;;;;;3.97;0.50;;;17.00;91.50;;;;;;4862433;29;20964;-88
2023/08/08 07:58:12;;;;;;;1.73;0.40;;;17.00;91.70;;;;;;4871681;29;20045;-88
2023/08/08 08:00:39;;;;;;;3.50;0.38;;;17.10;91.60;;;;;;4868851;29;20083;-85
2023/08/08 08:03:06;;;;;;;3.38;0.63;;;17.20;92.00;;;;;;4888154;29;20052;-86
2023/08/08 08:05:34;;;;;;;1.45;0.30;;;17.30;91.50;;;;;;4877873;29;20084;-89
2023/08/08 08:08:04;;;;;;;2.53;0.52;;;17.40;90.90;;;;;;4885557;29;20059;-87
2023/08/08 08:11:09;;;;;;;3.47;0.43;;;17.50;90.30;;;;;;4881635;29;20157;-87
2023/08/08 08:13:40;;;;;;;4.00;0.40;;;17.60;90.00;;;;;;4895538;29;20104;-88
2023/08/08 08:16:07;;;;;;;2.38;0.38;;;17.70;89.30;;;;;;4854837;29;20091;-87
2023/08/08 08:18:35;;;;;;;1.77;0.80;;;17.90;89.20;;;;;;4862721;29;20052;-87
2023/08/08 08:21:40;;;;;;;1.02;0.38;;;18.00;87.80;;;;;;4863377;29;20049;-88
2023/08/08 08:24:07;;;;;;;2.85;0.40;;;18.00;86.20;;;;;;4877503;29;20056;-88
2023/08/08 08:26:34;;;;;;;1.60;0.40;;;18.00;85.90;;;;;;4878512;29;20045;-88
2023/08/08 08:29:01;;;;;;;3.35;0.28;;;18.10;85.30;;;;;;4850072;29;20049;-89
2023/08/08 08:31:29;;;;;;;2.55;0.30;;;18.10;85.40;;;;;;4882309;29;20044;-89
2023/08/08 08:33:56;;;;;;;2.00;0.20;;;18.20;84.70;;;;;;4865528;29;20049;-87
2023/08/08 08:36:23;;;;;;;3.60;0.55;;;18.30;84.30;;;;;;4865659;29;20053;-87
2023/08/08 08:38:50;;;;;;;3.60;0.55;;;18.30;83.40;;;;;;4847663;29;20408;-86
2023/08/08 08:41:20;;;;;;;0.90;0.30;;;18.40;82.60;;;;;;4876038;29;20063;-88
2023/08/08 08:43:49;;;;;;;1.73;0.30;;;18.40;80.60;;;;;;4895171;29;20056;-87
2023/08/08 08:46:20;;;;;;;1.38;0.30;;;18.40;79.50;;;;;;4864942;29;20045;-87
2023/08/08 08:48:49;;;;;;;3.00;0.30;;;18.40;79.80;;;;;;4861735;29;20494;-88
2023/08/08 08:51:20;;;;;;;1.15;0.32;;;18.40;80.40;;;;;;4887955;29;20108;-87
2023/08/08 08:53:48;;;;;;;0.85;0.17;;;18.40;79.50;;;;;;4854686;29;20441;-86
2023/08/08 08:56:16;;;;;;;1.67;0.22;;;18.50;80.30;;;;;;4894515;29;20052;-86
2023/08/08 08:58:43;;;;;;;2.65;0.57;;;18.50;79.70;;;;;;4883532;29;20053;-86
2023/08/08 09:01:11;;;;;;;2.78;0.22;;;18.50;79.60;;;;;;4878608;29;20063;-86
2023/08/08 09:03:42;;;;;;;1.00;0.30;;;18.50;79.90;;;;;;4880764;29;20465;-84
2023/08/08 09:06:16;;;;;;;3.00;0.40;;;18.60;78.70;;;;;;4866657;29;20417;-88
2023/08/08 09:08:45;;;;;;;2.10;0.30;;;18.70;79.00;;;;;;4885455;29;20108;-87
2023/08/08 09:11:12;;;;;;;1.08;0.32;;;18.80;78.50;;;;;;4866709;29;20079;-85
2023/08/08 09:13:40;;;;;;;1.90;0.28;;;18.90;77.70;;;;;;4887980;29;20068;-84
2023/08/08 09:16:13;;;;;;;1.85;0.50;;;18.90;77.20;;;;;;4881945;29;20501;-86
2023/08/08 09:18:44;;;;;;;1.42;0.30;;;18.80;77.60;;;;;;4692630;29;20927;-87
2023/08/08 09:21:15;;;;;;;0.70;0.20;;;18.70;77.50;;;;;;4862637;29;20044;-84
2023/08/08 09:23:49;;;;;;;0.85;0.30;;;18.80;77.20;;;;;;4841937;29;20043;-84
2023/08/08 09:26:18;;;;;;;1.75;0.20;;;18.80;75.90;;;;;;4849349;29;20497;-87
2023/08/08 09:28:45;;;;;;;1.45;0.20;;;18.80;75.50;;;;;;4892605;29;20048;-81
2023/08/08 09:31:12;;;;;;;2.42;0.68;;;18.70;75.50;;;;;;4847338;29;20044;-78
2023/08/08 09:33:40;;;;;;;0.82;0.30;;;18.70;74.10;;;;;;4878482;29;20087;-82
2023/08/08 09:36:07;;;;;;;1.30;0.30;;;18.70;73.70;;;;;;4893320;29;20059;-82
2023/08/08 09:39:12;;;;;;;1.20;0.17;;;18.80;72.80;;;;;;4856302;29;20044;-82
2023/08/08 09:41:39;;;;;;;0.63;0.20;;;18.80;72.60;;;;;;4860536;29;20075;-82
2023/08/08 09:44:08;;;;;;;1.17;0.10;;;18.70;71.60;;;;;;4868562;29;20044;-82
2023/08/08 09:46:37;;;;;;;0.88;0.10;;;18.60;71.40;;;;;;4872058;29;20065;-84
2023/08/08 09:49:05;;;;;;;0.40;0.10;;;18.60;71.90;;;;;;4894718;29;20054;-83
2023/08/08 09:51:33;;;;;;;1.05;0.20;;;18.60;72.40;;;;;;4892682;29;20047;-82
2023/08/08 09:54:06;;;;;;;1.33;0.28;;;18.70;72.00;;;;;;4879861;29;20052;-84
2023/08/08 09:56:45;;;;;;;2.00;0.20;;;18.80;71.80;;;;;;4893842;29;20143;-85
2023/08/08 09:59:18;;;;;;;1.55;0.22;;;19.00;71.40;;;;;;4863619;29;20416;-83
2023/08/08 10:01:47;;;;;;;0.82;0.60;;;19.10;71.40;;;;;;4864068;29;20051;-82
2023/08/08 10:04:18;;;;;;;1.98;0.30;;;19.10;70.30;;;;;;4899266;29;20123;-82
2023/08/08 10:06:45;;;;;;;1.08;0.32;;;19.30;70.20;;;;;;4861989;29;20067;-84
2023/08/08 10:09:12;;;;;;;0.68;0.30;;;19.40;68.90;;;;;;4861609;29;20145;-82
2023/08/08 10:11:42;;;;;;;0.75;0.30;;;19.50;69.30;;;;;;4866989;29;20069;-82
2023/08/08 10:14:14;;;;;;;1.17;0.22;;;19.60;69.00;;;;;;4891637;29;20108;-82
2023/08/08 10:16:44;;;;;;;;;;;19.60;67.90;;;;;;4866916;29;20155;-82
2023/08/08 10:19:13;;;;;;;1.55;0.20;;;19.60;67.70;;;;;;4878374;29;20018;-83
2023/08/08 10:22:18;;;;;;;1.92;0.30;;;19.50;67.80;;;;;;4893933;29;21400;-83
2023/08/08 10:24:48;;;;;;;1.35;0.20;;;19.50;68.10;;;;;;4891881;29;20045;-83
2023/08/08 10:27:28;;;;;;;1.55;0.40;;;19.40;68.40;;;;;;4877839;29;20068;-83
2023/08/08 10:30:02;;;;;;;1.35;0.52;;;19.40;68.60;;;;;;4890947;29;20037;-85
2023/08/08 10:32:37;;;;;;;0.90;0.30;;;19.40;68.80;;;;;;4895541;29;20105;-83
2023/08/08 10:35:07;;;;;;;0.20;0.13;;;19.50;67.90;;;;;;4703531;29;20406;-83
2023/08/08 10:37:37;;;;;;;0.70;0.20;;;19.70;67.70;;;;;;4882708;29;20104;-81
2023/08/08 10:40:06;;;;;;;0.35;0.20;;;19.80;66.70;;;;;;4893243;29;20052;-81
2023/08/08 10:43:12;;;;;;;0.68;0.30;;;19.80;67.10;;;;;;4891726;29;20139;-83
2023/08/08 10:46:18;;;;;;;0.40;0.20;;;19.90;67.40;;;;;;4897312;29;20040;-77
2023/08/08 10:48:53;;;;;;;0.50;0.22;;;20.10;67.00;;;;;;4884613;29;20053;-84
2023/08/08 10:51:22;;;;;;;0.77;0.22;;;20.30;66.00;;;;;;4875336;29;20056;-88
2023/08/08 10:53:53;;;;;;;0.93;0.20;;;20.60;65.10;;;;;;4875345;29;20040;-84
2023/08/08 10:56:22;;;;;;;2.08;0.32;;;20.60;65.10;;;;;;4862785;29;20120;-82
2023/08/08 10:58:50;;;;;;;1.88;0.30;;;20.50;65.40;;;;;;4866213;29;20504;-88
2023/08/08 11:01:17;;;;;;;1.10;0.30;;;20.70;65.50;;;;;;4893493;29;20067;-84
2023/08/08 11:03:46;;;;;;;1.85;0.28;;;21.10;64.60;;;;;;4864070;29;20052;-89
2023/08/08 11:06:14;;;;;;;0.90;0.50;;;21.00;63.60;;;;;;4900689;29;20135;-90
2023/08/08 11:08:41;;;;;;;2.75;0.80;;;20.70;63.10;;;;;;4882643;29;20473;-88
2023/08/08 11:11:08;;;;;;;3.38;0.47;;;20.50;63.50;;;;;;4867081;29;20070;-94
2023/08/08 11:17:27;;;;;;;2.20;0.50;;;20.20;65.10;;;;;;4897458;29;20072;-93
2023/08/08 11:19:55;;;;;;;0.52;0.20;;;20.40;64.50;;;;;;4898248;29;20059;-87
2023/08/08 11:22:23;;;;;;;1.75;0.50;;;20.60;64.20;;;;;;4900132;29;20057;-95
2023/08/08 11:25:03;;;;;;;2.15;0.38;;;20.60;63.30;;;;;;4899901;29;20147;-92
2023/08/08 11:31:28;;;;;;;2.42;0.50;;;20.30;63.90;;;;;;4892390;29;20054;-95
2023/08/08 11:33:59;;;;;;;1.58;0.47;;;20.00;64.10;;;;;;4897016;29;20135;-94
2023/08/08 11:36:34;;;;;;;1.13;0.47;;;19.80;64.40;;;;;;4893195;29;20068;-92
2023/08/08 11:39:28;;;;;;;1.95;0.35;;;19.90;64.20;;;;;;4902748;29;20068;-91
2023/08/08 11:43:02;;;;;;;1.23;0.30;;;20.00;64.20;;;;;;4852492;29;20057;-91
2023/08/08 11:46:22;;;;;;;0.80;0.40;;;20.00;64.60;;;;;;4818570;29;20121;-94
2023/08/08 11:48:52;;;;;;;0.90;0.28;;;19.80;64.10;;;;;;4818344;29;20062;-95
2023/08/08 11:51:20;;;;;;;2.40;0.40;;;19.90;64.60;;;;;;4837012;29;20179;-94
2023/08/08 11:53:51;;;;;;;2.95;0.75;;;20.60;64.00;;;;;;4795248;29;20049;-93
2023/08/08 11:56:20;;;;;;;1.40;0.40;;;20.90;63.10;;;;;;4862812;29;20132;-91
2023/08/08 11:58:52;;;;;;;1.58;0.85;;;20.90;62.90;;;;;;4870895;29;20546;-90
2023/08/08 12:01:20;;;;;;;1.38;0.30;;;21.00;62.40;;;;;;4869108;29;20053;-91
2023/08/08 12:03:48;;;;;;;2.33;0.32;;;21.10;62.30;;;;;;4863173;29;20189;-91
2023/08/08 12:06:16;;;;;;;2.63;0.52;;;21.10;61.80;;;;;;4872663;29;20144;-90
2023/08/08 12:08:47;;;;;;;1.52;0.38;;;21.20;61.50;;;;;;4836023;29;20077;-91
2023/08/08 12:11:15;;;;;;;1.33;0.60;;;21.40;61.30;;;;;;4861729;29;20042;-92
2023/08/08 12:13:44;;;;;;;0.77;0.30;;;21.70;60.30;;;;;;4848508;29;20046;-86
2023/08/08 12:16:16;;;;;;;0.80;0.40;;;21.60;60.00;;;;;;4876931;29;20052;-84
2023/08/08 12:18:45;;;;;;;0.73;0.30;;;21.80;59.20;;;;;;4862793;29;20154;-85
2023/08/08 12:21:51;;;;;;;1.42;0.40;;;21.80;59.40;;;;;;4880578;29;20060;-85
2023/08/08 12:24:21;;;;;;;1.45;0.50;;;21.70;59.50;;;;;;4893283;29;20045;-90
2023/08/08 12:26:51;;;;;;;2.28;0.60;;;21.50;59.90;;;;;;4865272;29;20092;-92
2023/08/08 12:29:18;;;;;;;3.28;0.35;;;21.80;59.70;;;;;;4895813;29;20132;-84
2023/08/08 12:32:28;;;;;;;1.88;0.47;;;22.40;58.00;;;;;;4871435;29;20044;-84
2023/08/08 12:34:55;;;;;;;1.33;0.40;;;22.40;58.20;;;;;;4888102;29;20450;-86
2023/08/08 12:37:23;;;;;;;1.02;0.45;;;22.60;57.90;;;;;;4878808;29;20056;-88
2023/08/08 12:39:51;;;;;;;1.88;0.50;;;23.10;58.30;;;;;;4845217;29;20064;-87
2023/08/08 12:42:18;;;;;;;1.02;0.32;;;23.50;57.10;;;;;;4877868;29;20508;-86
2023/08/08 12:44:46;;;;;;;1.75;0.50;;;23.30;55.90;;;;;;4889507;29;20044;-83
2023/08/08 12:47:14;;;;;;;2.28;0.40;;;23.00;56.90;;;;;;4881739;29;20056;-87
2023/08/08 12:49:50;;;;;;;0.98;0.40;;;23.30;56.60;;;;;;4904122;29;20048;-86
2023/08/08 12:52:17;;;;;;;0.93;0.28;;;23.90;55.60;;;;;;4874512;29;20104;-89
2023/08/08 12:54:45;;;;;;;1.55;0.50;;;24.20;55.10;;;;;;4856225;29;20132;-83
2023/08/08 12:57:51;;;;;;;2.08;0.35;;;23.90;54.60;;;;;;4888943;29;20389;-87
2023/08/08 13:00:23;;;;;;;2.00;0.40;;;23.00;55.60;;;;;;4902180;29;20472;-84
2023/08/08 13:03:09;;;;;;;0.28;0.20;;;22.60;56.90;;;;;;4889833;29;20431;-83
2023/08/08 13:05:44;;;;;;;1.05;0.30;;;23.40;56.70;;;;;;4854927;29;20493;-84
2023/08/08 13:08:20;;;;;;;3.15;0.47;;;23.40;56.60;;;;;;4881009;29;20052;-84
2023/08/08 13:10:53;;;;;;;2.30;0.50;;;22.70;56.70;;;;;;4864478;29;20040;-84
2023/08/08 13:13:24;;;;;;;1.67;0.25;;;22.20;57.50;;;;;;4886428;29;20434;-84